Time;durP1;ratioP1;P1;durP2;ratioP2;P2;SDS_P1;SDS_P2;PMS_P1;PMS_P2;Temp;Humidity;BMP_temperature;BMP_pressure;BME280_temperature;BME280_humidity;BME280_pressure;Samples;Min_cycle;Max_cycle;Signal;HPM_P1;HPM_P2
2023/12/26 00:01:07;;;;;;;1.83;0.77;;;11.50;99.90;;;;;;5005492;28;20099;-68
2023/12/26 00:03:33;;;;;;;0.70;0.60;;;11.50;99.90;;;;;;5005809;28;20174;-68
2023/12/26 00:05:58;;;;;;;0.75;0.57;;;11.50;99.90;;;;;;5004996;28;20032;-67
2023/12/26 00:08:24;;;;;;;1.00;0.60;;;11.50;99.90;;;;;;5007111;28;20037;-68
2023/12/26 00:10:50;;;;;;;0.70;0.60;;;11.50;99.90;;;;;;5011909;28;20720;-68
2023/12/26 00:13:15;;;;;;;0.75;0.30;;;11.50;99.90;;;;;;5005514;28;20068;-68
2023/12/26 00:15:41;;;;;;;1.80;0.70;;;11.50;99.90;;;;;;5013039;28;20040;-68
2023/12/26 00:18:06;;;;;;;0.38;0.28;;;11.50;99.90;;;;;;5006263;28;20676;-68
2023/12/26 00:20:40;;;;;;;0.25;0.25;;;11.50;99.90;;;;;;5006576;28;20204;-68
2023/12/26 00:23:08;;;;;;;0.28;0.20;;;11.50;99.90;;;;;;5008956;28;20037;-68
2023/12/26 00:25:33;;;;;;;;;;;11.50;99.90;;;;;;5009092;28;20403;-68
2023/12/26 00:28:03;;;;;;;0.13;0.13;;;11.50;99.90;;;;;;5012071;28;19917;-68
2023/12/26 00:30:29;;;;;;;0.40;0.20;;;11.60;99.90;;;;;;5011371;28;20164;-68
2023/12/26 00:32:57;;;;;;;0.05;0.00;;;11.60;99.90;;;;;;5011007;28;20037;-67
2023/12/26 00:35:22;;;;;;;0.93;0.50;;;11.60;99.90;;;;;;5011518;28;20041;-68
2023/12/26 00:37:50;;;;;;;0.47;0.10;;;11.70;99.90;;;;;;5010116;28;20155;-67
2023/12/26 00:40:18;;;;;;;0.15;0.10;;;11.80;99.90;;;;;;5008923;28;20694;-68
2023/12/26 00:42:44;;;;;;;0.45;0.10;;;11.80;99.90;;;;;;5009486;28;20303;-68
2023/12/26 00:45:13;;;;;;;0.20;0.00;;;11.80;99.90;;;;;;5008007;28;20034;-68
2023/12/26 00:47:41;;;;;;;1.75;0.00;;;11.90;99.90;;;;;;5036515;22;20106;-68
2023/12/26 00:50:13;;;;;;;0.00;0.00;;;11.90;99.90;;;;;;5036415;28;20032;-68
2023/12/26 00:52:39;;;;;;;0.10;0.10;;;11.90;99.90;;;;;;5032146;28;20053;-68
2023/12/26 00:55:06;;;;;;;0.10;0.10;;;11.90;99.90;;;;;;5029366;28;20104;-68
2023/12/26 00:57:34;;;;;;;0.70;0.10;;;12.00;99.90;;;;;;5031344;28;20039;-68
2023/12/26 01:00:03;;;;;;;0.03;0.03;;;12.00;99.90;;;;;;5030159;28;20028;-68
2023/12/26 01:02:29;;;;;;;0.10;0.00;;;12.00;99.90;;;;;;5030569;28;20036;-68
2023/12/26 01:04:56;;;;;;;0.55;0.10;;;12.00;99.90;;;;;;5030355;28;21042;-68
2023/12/26 01:07:24;;;;;;;0.10;0.10;;;12.00;99.90;;;;;;5029963;28;20077;-67
2023/12/26 01:09:50;;;;;;;0.10;0.05;;;12.00;99.90;;;;;;5038191;28;20052;-68
2023/12/26 01:12:18;;;;;;;0.03;0.03;;;12.00;99.90;;;;;;5030719;28;20032;-68
2023/12/26 01:14:44;;;;;;;0.00;0.00;;;12.00;99.90;;;;;;5031292;28;20033;-68
2023/12/26 01:17:10;;;;;;;0.08;0.08;;;12.10;99.90;;;;;;5029712;28;20029;-68
2023/12/26 01:19:35;;;;;;;0.30;0.10;;;12.10;99.90;;;;;;5039132;28;20043;-68
2023/12/26 01:22:01;;;;;;;0.03;0.03;;;12.10;99.90;;;;;;5029985;28;20411;-68
2023/12/26 01:24:26;;;;;;;3.72;0.20;;;12.10;99.90;;;;;;5031198;28;20067;-68
2023/12/26 01:26:52;;;;;;;0.10;0.10;;;12.10;99.90;;;;;;5029336;28;20058;-68
2023/12/26 01:29:20;;;;;;;1.27;0.22;;;12.00;99.90;;;;;;5032873;28;20445;-68
2023/12/26 01:31:45;;;;;;;0.28;0.15;;;12.00;99.90;;;;;;5027025;28;20426;-67
2023/12/26 01:34:13;;;;;;;0.43;0.10;;;11.90;99.90;;;;;;5030979;28;20036;-68
2023/12/26 01:36:39;;;;;;;0.30;0.10;;;11.70;99.90;;;;;;5029810;28;21270;-68
2023/12/26 01:39:05;;;;;;;0.00;0.00;;;11.60;99.90;;;;;;5030940;28;20047;-67
2023/12/26 01:41:31;;;;;;;0.95;0.00;;;11.50;99.90;;;;;;5030466;28;20094;-67
2023/12/26 01:43:56;;;;;;;0.10;0.00;;;11.40;99.90;;;;;;5030708;28;20036;-67
2023/12/26 01:46:22;;;;;;;0.05;0.00;;;11.30;99.90;;;;;;5028776;28;20036;-67
2023/12/26 01:48:51;;;;;;;0.17;0.00;;;11.20;99.90;;;;;;5032736;28;20040;-67
2023/12/26 01:51:25;;;;;;;0.00;0.00;;;11.20;99.90;;;;;;5029710;28;20071;-67
2023/12/26 01:53:53;;;;;;;0.88;0.20;;;11.10;99.90;;;;;;5030750;28;20399;-67
2023/12/26 01:56:19;;;;;;;0.68;0.20;;;11.00;99.90;;;;;;5030065;28;20507;-68
2023/12/26 01:58:50;;;;;;;0.38;0.10;;;11.00;99.90;;;;;;5030863;28;20332;-67
2023/12/26 02:01:16;;;;;;;0.30;0.10;;;11.00;99.90;;;;;;5028309;28;22168;-67
2023/12/26 02:03:42;;;;;;;0.10;0.05;;;11.00;99.90;;;;;;5029830;28;20050;-68
2023/12/26 02:06:11;;;;;;;0.80;0.20;;;11.00;99.90;;;;;;5028022;28;22046;-67
2023/12/26 02:08:39;;;;;;;0.10;0.00;;;10.90;99.90;;;;;;5029767;28;20032;-67
2023/12/26 02:11:07;;;;;;;0.28;0.10;;;10.90;99.90;;;;;;5026553;28;20028;-67
2023/12/26 02:13:36;;;;;;;;;;;10.90;99.90;;;;;;5044873;28;20308;-67
2023/12/26 02:16:15;;;;;;;0.00;0.00;;;10.90;99.90;;;;;;5029298;28;20003;-68
2023/12/26 02:18:43;;;;;;;0.38;0.10;;;10.90;99.90;;;;;;5029736;28;20106;-68
2023/12/26 02:21:09;;;;;;;;;;;10.90;99.90;;;;;;5029913;28;20063;-67
2023/12/26 02:23:35;;;;;;;1.25;0.10;;;10.90;99.90;;;;;;5030341;28;20691;-68
2023/12/26 02:26:06;;;;;;;0.10;0.00;;;10.90;99.90;;;;;;5027858;28;20266;-67
2023/12/26 02:28:33;;;;;;;1.35;0.10;;;10.80;99.90;;;;;;5030109;28;20060;-67
2023/12/26 02:31:03;;;;;;;0.25;0.25;;;10.80;99.90;;;;;;5027786;28;20032;-67
2023/12/26 02:33:33;;;;;;;0.22;0.08;;;10.80;99.90;;;;;;5029898;28;20498;-67
2023/12/26 02:36:02;;;;;;;1.50;0.15;;;10.80;99.90;;;;;;5027706;28;20035;-67
2023/12/26 02:38:27;;;;;;;0.32;0.20;;;10.70;99.90;;;;;;5030939;28;20025;-67
2023/12/26 02:40:53;;;;;;;0.10;0.10;;;10.70;99.90;;;;;;5029701;28;20445;-68
2023/12/26 02:43:22;;;;;;;1.45;0.20;;;10.70;99.90;;;;;;5028841;28;20102;-67
2023/12/26 02:45:49;;;;;;;0.20;0.10;;;10.70;99.90;;;;;;5028057;28;20037;-67
2023/12/26 02:48:20;;;;;;;0.38;0.20;;;10.60;99.90;;;;;;5033785;28;20028;-67
2023/12/26 02:50:46;;;;;;;0.28;0.10;;;10.60;99.90;;;;;;5027231;28;20068;-67
2023/12/26 02:53:14;;;;;;;0.38;0.10;;;10.60;99.90;;;;;;5028571;28;20130;-67
2023/12/26 02:55:40;;;;;;;;;;;10.60;99.90;;;;;;5028032;28;20033;-67
2023/12/26 02:58:06;;;;;;;1.35;0.00;;;10.60;99.90;;;;;;5031277;28;19931;-67
2023/12/26 03:00:31;;;;;;;0.20;0.05;;;10.60;99.90;;;;;;5029038;28;20028;-67
2023/12/26 03:02:57;;;;;;;0.00;0.00;;;10.60;99.90;;;;;;5028889;28;20387;-68
2023/12/26 03:05:23;;;;;;;0.15;0.10;;;10.60;99.90;;;;;;5026275;28;20033;-67
2023/12/26 03:07:49;;;;;;;0.20;0.10;;;10.60;99.90;;;;;;5028988;28;20083;-67
2023/12/26 03:10:15;;;;;;;0.35;0.10;;;10.60;99.90;;;;;;5028964;28;20478;-67
2023/12/26 03:12:43;;;;;;;0.30;0.00;;;10.70;99.90;;;;;;5028832;28;20047;-68
2023/12/26 03:15:10;;;;;;;;;;;10.70;99.90;;;;;;5029295;28;20086;-67
2023/12/26 03:17:36;;;;;;;0.10;0.10;;;10.80;99.90;;;;;;5028808;28;19959;-67
2023/12/26 03:20:01;;;;;;;0.28;0.10;;;10.80;99.90;;;;;;5026555;28;20724;-68
2023/12/26 03:22:29;;;;;;;0.43;0.17;;;10.90;99.90;;;;;;5028475;28;20463;-68
2023/12/26 03:24:55;;;;;;;0.20;0.20;;;11.00;99.90;;;;;;5025750;28;20033;-68
2023/12/26 03:27:23;;;;;;;0.10;0.10;;;11.10;99.90;;;;;;5027186;28;20043;-67
2023/12/26 03:29:49;;;;;;;0.10;0.00;;;11.10;99.90;;;;;;5027441;28;20479;-68
2023/12/26 03:32:19;;;;;;;0.25;0.17;;;11.20;99.90;;;;;;5026022;28;20090;-68
2023/12/26 03:34:44;;;;;;;0.00;0.00;;;11.20;99.90;;;;;;5028621;28;20025;-68
2023/12/26 03:37:10;;;;;;;1.35;0.17;;;11.20;99.90;;;;;;5026633;28;20139;-68
2023/12/26 03:39:41;;;;;;;0.00;0.00;;;11.30;99.90;;;;;;5032067;28;20036;-67
2023/12/26 03:42:11;;;;;;;0.10;0.10;;;11.30;99.90;;;;;;5026937;28;20028;-68
2023/12/26 03:44:36;;;;;;;0.10;0.10;;;11.30;99.90;;;;;;5029021;28;20736;-68
2023/12/26 03:47:02;;;;;;;0.00;0.00;;;11.30;99.90;;;;;;5026750;28;20130;-68
2023/12/26 03:49:32;;;;;;;0.38;0.10;;;11.40;99.90;;;;;;5028934;28;20033;-68
2023/12/26 03:51:57;;;;;;;0.00;0.00;;;11.40;99.90;;;;;;5027929;28;20033;-68
2023/12/26 03:54:25;;;;;;;0.20;0.15;;;11.40;99.90;;;;;;5029837;28;20066;-67
2023/12/26 03:56:51;;;;;;;;;;;11.40;99.90;;;;;;5028890;28;20694;-68
2023/12/26 03:59:16;;;;;;;0.13;0.08;;;11.40;99.90;;;;;;5027982;28;19912;-68
2023/12/26 04:01:42;;;;;;;0.88;0.10;;;11.40;99.90;;;;;;5026451;28;20064;-67
2023/12/26 04:04:08;;;;;;;0.10;0.03;;;11.40;99.90;;;;;;5026568;28;20044;-67
2023/12/26 04:06:36;;;;;;;0.20;0.20;;;11.40;99.90;;;;;;5026716;28;20033;-67
2023/12/26 04:09:01;;;;;;;3.15;0.60;;;11.40;99.90;;;;;;5028360;28;20032;-68
2023/12/26 04:11:30;;;;;;;0.13;0.10;;;11.40;99.90;;;;;;5027433;28;20115;-67
2023/12/26 04:13:55;;;;;;;0.13;0.10;;;11.20;99.90;;;;;;5026158;28;20040;-68
2023/12/26 04:16:23;;;;;;;1.55;0.03;;;11.00;99.90;;;;;;5026244;28;20029;-68
2023/12/26 04:18:50;;;;;;;0.52;0.10;;;11.00;99.90;;;;;;5028911;28;20085;-68
2023/12/26 04:21:17;;;;;;;0.93;0.22;;;10.80;99.90;;;;;;5028480;28;20036;-67
2023/12/26 04:23:45;;;;;;;0.65;0.13;;;10.80;99.90;;;;;;5027935;28;20060;-67
2023/12/26 04:26:11;;;;;;;0.65;0.00;;;10.70;99.90;;;;;;5026392;28;20041;-68
2023/12/26 04:28:37;;;;;;;1.05;0.20;;;10.60;99.90;;;;;;5027293;28;20328;-67
2023/12/26 04:31:04;;;;;;;0.05;0.00;;;10.50;99.90;;;;;;5026816;28;20048;-68
2023/12/26 04:33:32;;;;;;;0.35;0.15;;;10.50;99.90;;;;;;5027696;28;20021;-67
2023/12/26 04:35:57;;;;;;;;;;;10.40;99.90;;;;;;5026410;28;20127;-67
2023/12/26 04:38:23;;;;;;;0.75;0.10;;;10.40;99.90;;;;;;5029203;28;19913;-67
2023/12/26 04:40:49;;;;;;;0.45;0.10;;;10.40;99.90;;;;;;5027502;28;20031;-67
2023/12/26 04:43:17;;;;;;;3.50;0.32;;;10.40;99.90;;;;;;5028110;28;20029;-67
2023/12/26 04:45:42;;;;;;;;;;;10.30;99.90;;;;;;5026723;28;20033;-68
2023/12/26 04:48:09;;;;;;;4.78;0.73;;;10.30;99.90;;;;;;5029956;28;20010;-68
2023/12/26 04:50:35;;;;;;;3.08;0.60;;;10.20;99.90;;;;;;5026483;28;20251;-68
2023/12/26 04:53:05;;;;;;;0.40;0.25;;;10.20;99.90;;;;;;5030222;28;20029;-67
2023/12/26 04:55:34;;;;;;;1.15;0.40;;;10.20;99.90;;;;;;5026005;28;20161;-67
2023/12/26 04:58:02;;;;;;;4.47;0.40;;;10.20;99.90;;;;;;5028522;28;21643;-67
2023/12/26 05:00:28;;;;;;;0.88;0.40;;;10.20;99.90;;;;;;5026875;28;20028;-68
2023/12/26 05:02:56;;;;;;;0.45;0.22;;;10.10;99.90;;;;;;5027236;28;20130;-68
2023/12/26 05:05:24;;;;;;;2.80;0.32;;;10.10;99.90;;;;;;5027623;28;20036;-68
2023/12/26 05:07:52;;;;;;;4.55;0.65;;;10.10;99.90;;;;;;5030742;28;20051;-67
2023/12/26 05:10:18;;;;;;;3.15;0.63;;;10.10;99.90;;;;;;5028645;28;20687;-68
2023/12/26 05:12:43;;;;;;;1.27;0.57;;;10.10;99.90;;;;;;5032654;28;20032;-67
2023/12/26 05:15:09;;;;;;;5.82;0.73;;;10.10;99.90;;;;;;5030111;28;20310;-67
2023/12/26 05:17:37;;;;;;;3.75;0.88;;;10.00;99.90;;;;;;5030470;28;20676;-67
2023/12/26 05:20:03;;;;;;;;;;;10.00;99.90;;;;;;5028404;28;20739;-68
2023/12/26 05:22:34;;;;;;;4.22;0.77;;;10.00;99.90;;;;;;5030218;28;22213;-68
2023/12/26 05:25:02;;;;;;;3.97;1.05;;;10.00;99.90;;;;;;5029413;28;20036;-68
2023/12/26 05:27:27;;;;;;;;;;;10.00;99.90;;;;;;5029941;28;20021;-68
2023/12/26 05:29:55;;;;;;;3.90;0.70;;;10.00;99.90;;;;;;5031581;28;19974;-67
2023/12/26 05:32:21;;;;;;;2.25;0.55;;;10.00;99.90;;;;;;5029744;28;20483;-68
2023/12/26 05:34:48;;;;;;;7.28;0.88;;;10.00;99.90;;;;;;5029631;28;20338;-68
2023/12/26 05:37:13;;;;;;;5.43;0.70;;;10.00;99.90;;;;;;5029530;28;20032;-67
2023/12/26 05:39:44;;;;;;;3.05;0.60;;;10.00;99.90;;;;;;5031183;28;20051;-68
2023/12/26 05:42:10;;;;;;;4.53;0.85;;;10.00;99.90;;;;;;5031480;28;20080;-68
2023/12/26 05:44:38;;;;;;;4.90;0.80;;;10.00;99.90;;;;;;5030856;28;20475;-67
2023/12/26 05:47:05;;;;;;;3.00;0.73;;;10.00;99.90;;;;;;5029013;28;20075;-68
2023/12/26 05:49:31;;;;;;;3.75;0.80;;;10.00;99.90;;;;;;5033915;28;20044;-68
2023/12/26 05:51:56;;;;;;;5.65;1.20;;;10.00;99.90;;;;;;5035501;28;20033;-68
2023/12/26 05:54:22;;;;;;;9.23;1.08;;;10.00;99.90;;;;;;5035598;28;20078;-68
2023/12/26 05:56:52;;;;;;;4.82;0.77;;;9.90;99.90;;;;;;5035648;28;20483;-67
2023/12/26 05:59:20;;;;;;;3.63;0.98;;;10.00;99.90;;;;;;5036932;28;20036;-67
2023/12/26 06:01:48;;;;;;;;;;;9.90;99.90;;;;;;5036594;28;22230;-67
2023/12/26 06:04:16;;;;;;;2.60;0.70;;;9.90;99.90;;;;;;5033244;28;19922;-68
2023/12/26 06:06:42;;;;;;;1.73;0.68;;;9.90;99.90;;;;;;5034336;28;20152;-68
2023/12/26 06:09:07;;;;;;;2.75;0.65;;;9.90;99.90;;;;;;5036961;28;20094;-68
2023/12/26 06:11:35;;;;;;;3.08;0.95;;;9.90;99.90;;;;;;5034599;28;20184;-67
2023/12/26 06:14:01;;;;;;;6.65;0.98;;;9.90;99.90;;;;;;5036831;28;20085;-68
2023/12/26 06:16:26;;;;;;;6.70;0.88;;;9.90;99.90;;;;;;5034509;28;20217;-68
2023/12/26 06:18:52;;;;;;;5.00;0.95;;;9.90;99.90;;;;;;5035775;28;20156;-68
2023/12/26 06:21:17;;;;;;;9.50;1.48;;;9.90;99.90;;;;;;5048969;28;20048;-68
2023/12/26 06:23:43;;;;;;;1.30;0.60;;;9.90;99.90;;;;;;5038157;28;20868;-68
2023/12/26 06:26:09;;;;;;;6.38;1.35;;;9.90;99.90;;;;;;5034614;28;20033;-68
2023/12/26 06:28:34;;;;;;;5.90;1.05;;;9.90;99.90;;;;;;5034745;28;20041;-67
2023/12/26 06:31:00;;;;;;;4.53;0.75;;;9.90;99.90;;;;;;5035408;28;20515;-68
2023/12/26 06:33:25;;;;;;;5.95;0.88;;;9.90;99.90;;;;;;5035628;28;20078;-68
2023/12/26 06:35:51;;;;;;;5.07;1.20;;;9.90;99.90;;;;;;5036396;28;20107;-67
2023/12/26 06:38:20;;;;;;;3.13;0.60;;;10.00;99.90;;;;;;5036594;28;20108;-68
2023/12/26 06:40:45;;;;;;;;;;;10.00;99.90;;;;;;5034050;28;20045;-68
2023/12/26 06:43:14;;;;;;;2.95;0.77;;;10.00;99.90;;;;;;5036586;28;19912;-68
2023/12/26 06:45:39;;;;;;;3.33;0.73;;;10.00;99.90;;;;;;5032830;28;20119;-67
2023/12/26 06:48:10;;;;;;;7.50;0.75;;;10.00;99.90;;;;;;5031149;22;20045;-68
2023/12/26 06:50:38;;;;;;;16.38;2.95;;;10.00;99.90;;;;;;5035042;28;20125;-68
2023/12/26 06:53:06;;;;;;;;;;;10.00;99.90;;;;;;5038812;28;20112;-68
2023/12/26 06:55:34;;;;;;;2.97;0.50;;;10.00;99.90;;;;;;5032937;28;20019;-68
2023/12/26 06:57:59;;;;;;;3.58;0.70;;;10.00;99.90;;;;;;5020424;28;20048;-68
2023/12/26 07:00:28;;;;;;;1.33;0.40;;;10.00;99.90;;;;;;5019433;28;20521;-68
2023/12/26 07:02:55;;;;;;;;;;;10.00;99.90;;;;;;5019637;28;20650;-67
2023/12/26 07:05:20;;;;;;;2.75;0.65;;;10.00;99.90;;;;;;5020609;28;19944;-67
2023/12/26 07:07:46;;;;;;;2.08;0.70;;;9.90;99.90;;;;;;5020825;28;20740;-67
2023/12/26 07:10:11;;;;;;;4.20;0.68;;;9.90;99.90;;;;;;5019384;28;20120;-67
2023/12/26 07:12:39;;;;;;;2.75;0.65;;;9.80;99.90;;;;;;5021036;28;21024;-68
2023/12/26 07:15:06;;;;;;;;;;;9.80;99.90;;;;;;5021765;28;20044;-68
2023/12/26 07:17:34;;;;;;;7.68;0.88;;;9.70;99.90;;;;;;5019055;28;19922;-68
2023/12/26 07:20:00;;;;;;;6.63;0.60;;;9.70;99.90;;;;;;5019372;28;20029;-67
2023/12/26 07:22:25;;;;;;;5.85;0.82;;;9.60;99.90;;;;;;5018792;28;20056;-67
2023/12/26 07:24:51;;;;;;;11.82;1.73;;;9.50;99.90;;;;;;5020558;28;20108;-68
2023/12/26 07:27:19;;;;;;;7.10;1.40;;;9.60;99.90;;;;;;5020370;28;20028;-69
2023/12/26 07:29:47;;;;;;;10.07;1.15;;;9.40;99.90;;;;;;5019778;28;20033;-68
2023/12/26 07:32:12;;;;;;;9.68;1.05;;;9.30;99.90;;;;;;5019562;28;20037;-67
2023/12/26 07:34:40;;;;;;;4.50;0.77;;;9.30;99.90;;;;;;5023098;28;20441;-67
2023/12/26 07:37:07;;;;;;;;;;;9.30;99.90;;;;;;5018532;28;20173;-68
2023/12/26 07:39:32;;;;;;;5.90;2.05;;;9.20;99.90;;;;;;5019276;28;19917;-68
2023/12/26 07:42:00;;;;;;;6.28;0.82;;;9.20;99.90;;;;;;5029478;28;20032;-68
2023/12/26 07:44:30;;;;;;;9.20;1.13;;;9.10;99.90;;;;;;5043823;28;20028;-68
2023/12/26 07:46:56;;;;;;;9.35;1.40;;;9.10;99.90;;;;;;5027547;28;20162;-67
2023/12/26 07:49:24;;;;;;;13.63;1.63;;;9.00;99.90;;;;;;5042197;28;20359;-68
2023/12/26 07:51:52;;;;;;;11.35;1.05;;;9.00;99.90;;;;;;5028626;28;20024;-67
2023/12/26 07:54:17;;;;;;;;;;;9.00;99.90;;;;;;5043700;28;20017;-67
2023/12/26 07:56:43;;;;;;;10.18;1.30;;;9.00;99.90;;;;;;5041144;28;19920;-68
2023/12/26 07:59:10;;;;;;;7.90;1.27;;;8.90;99.90;;;;;;5042997;28;20029;-67
2023/12/26 08:01:36;;;;;;;8.10;1.17;;;8.90;99.90;;;;;;5045117;28;20024;-67
2023/12/26 08:04:04;;;;;;;6.97;1.30;;;8.90;99.90;;;;;;5045371;28;20031;-67
2023/12/26 08:06:31;;;;;;;8.70;1.23;;;8.90;99.90;;;;;;5046609;28;20028;-67
2023/12/26 08:08:58;;;;;;;11.33;1.30;;;8.80;99.90;;;;;;5047187;28;20107;-67
2023/12/26 08:11:24;;;;;;;6.10;1.30;;;8.80;99.90;;;;;;5045726;28;20094;-68
2023/12/26 08:13:50;;;;;;;16.20;2.00;;;8.80;99.90;;;;;;5042269;28;20040;-68
2023/12/26 08:16:18;;;;;;;7.93;1.10;;;8.80;99.90;;;;;;5048752;28;20032;-68
2023/12/26 08:18:46;;;;;;;14.65;1.40;;;8.80;99.90;;;;;;5044646;28;20104;-68
2023/12/26 08:21:11;;;;;;;18.15;2.03;;;8.80;99.90;;;;;;5043755;28;20036;-67
2023/12/26 08:23:39;;;;;;;15.40;1.45;;;8.80;99.90;;;;;;5043848;28;20060;-68
2023/12/26 08:26:08;;;;;;;4.05;0.77;;;8.80;99.90;;;;;;5039027;28;20036;-67
2023/12/26 08:28:34;;;;;;;16.75;1.65;;;8.80;99.90;;;;;;5040662;28;20045;-68
2023/12/26 08:30:59;;;;;;;9.32;1.08;;;8.80;99.90;;;;;;5045265;28;20104;-68
2023/12/26 08:33:25;;;;;;;4.45;1.23;;;8.80;99.90;;;;;;5042682;28;20554;-68
2023/12/26 08:35:53;;;;;;;5.80;1.05;;;8.80;99.90;;;;;;5044821;28;20024;-68
2023/12/26 08:38:21;;;;;;;;;;;8.80;99.90;;;;;;5043594;28;20029;-68
2023/12/26 08:40:50;;;;;;;13.65;1.40;;;8.80;99.90;;;;;;5035294;28;19931;-68
2023/12/26 08:43:18;;;;;;;14.27;1.48;;;8.80;99.90;;;;;;5046844;28;20048;-67
2023/12/26 08:45:44;;;;;;;5.38;1.17;;;8.80;99.90;;;;;;5043679;28;20032;-68
2023/12/26 08:48:10;;;;;;;12.30;1.38;;;8.90;99.90;;;;;;5048335;28;20040;-68
2023/12/26 08:50:35;;;;;;;10.80;1.20;;;8.90;99.90;;;;;;5048938;28;20472;-68
2023/12/26 08:53:03;;;;;;;5.72;1.35;;;8.90;99.90;;;;;;5049102;28;20036;-68
2023/12/26 08:55:29;;;;;;;7.20;1.45;;;8.90;99.90;;;;;;5045978;28;20039;-68
2023/12/26 08:57:55;;;;;;;7.90;1.25;;;8.90;99.90;;;;;;5046789;28;20021;-68
2023/12/26 09:00:23;;;;;;;15.25;1.40;;;8.90;99.90;;;;;;5046742;28;20024;-68
2023/12/26 09:02:49;;;;;;;8.45;1.00;;;8.90;99.90;;;;;;5046401;28;20025;-68
2023/12/26 09:05:16;;;;;;;13.43;1.73;;;9.00;99.90;;;;;;5027028;28;20055;-68
2023/12/26 09:07:42;;;;;;;7.78;1.45;;;9.00;99.90;;;;;;5048108;28;20116;-68
2023/12/26 09:10:08;;;;;;;8.40;1.30;;;9.00;99.90;;;;;;5045314;28;20778;-68
2023/12/26 09:12:34;;;;;;;7.90;1.00;;;9.00;99.90;;;;;;5049437;28;20029;-68
2023/12/26 09:15:02;;;;;;;7.03;0.90;;;9.00;99.90;;;;;;5048692;28;20027;-68
2023/12/26 09:17:27;;;;;;;;;;;9.10;99.90;;;;;;5049243;28;20028;-68
2023/12/26 09:19:53;;;;;;;11.73;1.38;;;9.10;99.90;;;;;;5031515;28;20330;-68
2023/12/26 09:22:21;;;;;;;9.75;1.55;;;9.10;99.90;;;;;;5049670;28;20040;-68
2023/12/26 09:24:46;;;;;;;9.35;1.27;;;9.20;99.90;;;;;;5043854;28;20025;-68
2023/12/26 09:27:14;;;;;;;7.32;1.17;;;9.20;99.90;;;;;;5043928;28;20033;-68
2023/12/26 09:29:42;;;;;;;;;;;9.30;99.90;;;;;;5044771;28;20116;-68
2023/12/26 09:32:07;;;;;;;8.70;1.30;;;9.30;99.90;;;;;;5048741;28;19912;-68
2023/12/26 09:34:33;;;;;;;5.65;0.90;;;9.30;99.90;;;;;;5041444;28;20572;-68
2023/12/26 09:37:02;;;;;;;6.63;1.10;;;9.30;99.90;;;;;;5044381;28;20447;-68
2023/12/26 09:39:27;;;;;;;3.80;1.02;;;9.40;99.90;;;;;;5045847;28;20104;-68
2023/12/26 09:41:56;;;;;;;9.65;1.40;;;9.40;99.90;;;;;;5047585;28;20103;-68
2023/12/26 09:44:22;;;;;;;9.40;1.40;;;9.50;99.90;;;;;;5046973;28;20071;-68
2023/12/26 09:46:51;;;;;;;4.35;1.25;;;9.50;99.90;;;;;;5048027;28;20036;-68
2023/12/26 09:49:19;;;;;;;4.10;1.10;;;9.50;99.90;;;;;;5046711;28;20021;-68
2023/12/26 09:51:47;;;;;;;7.28;1.50;;;9.50;99.90;;;;;;5019606;28;20529;-68
2023/12/26 09:54:15;;;;;;;7.60;1.23;;;9.50;99.90;;;;;;5020163;28;20041;-68
2023/12/26 09:56:42;;;;;;;10.13;1.55;;;9.50;99.90;;;;;;5020165;28;20036;-68
2023/12/26 09:59:09;;;;;;;10.45;1.60;;;9.50;99.90;;;;;;5022817;28;20076;-68
2023/12/26 10:01:37;;;;;;;10.02;1.40;;;9.50;99.90;;;;;;5017466;28;20040;-67
2023/12/26 10:04:03;;;;;;;;;;;9.60;99.90;;;;;;5021191;28;20598;-68
2023/12/26 10:06:29;;;;;;;8.40;1.48;;;9.60;99.90;;;;;;5019924;28;19923;-68
2023/12/26 10:08:55;;;;;;;8.07;1.77;;;9.50;99.90;;;;;;5019795;28;20044;-68
2023/12/26 10:11:21;;;;;;;13.13;1.70;;;9.60;99.90;;;;;;5020073;28;20032;-68
2023/12/26 10:13:55;;;;;;;7.57;2.47;;;9.60;99.90;;;;;;5020373;28;20037;-68
2023/12/26 10:16:24;;;;;;;4.65;1.13;;;9.60;99.90;;;;;;5019559;28;21150;-67
2023/12/26 10:18:51;;;;;;;5.63;1.17;;;9.70;99.90;;;;;;5019186;28;20044;-68
2023/12/26 10:21:17;;;;;;;9.32;1.27;;;9.70;99.90;;;;;;5017538;28;20033;-68
2023/12/26 10:23:44;;;;;;;10.90;1.30;;;9.70;99.90;;;;;;5019496;28;20514;-68
2023/12/26 10:26:10;;;;;;;6.75;1.10;;;9.70;99.90;;;;;;5017251;28;20041;-68
2023/12/26 10:28:44;;;;;;;9.43;1.42;;;9.80;99.90;;;;;;5021724;28;20140;-68
2023/12/26 10:31:13;;;;;;;7.45;1.05;;;9.80;99.90;;;;;;5020639;28;20033;-68
2023/12/26 10:33:40;;;;;;;8.38;1.30;;;9.80;99.90;;;;;;5019037;28;20036;-68
2023/12/26 10:36:12;;;;;;;10.13;1.70;;;9.90;99.90;;;;;;5020725;28;20466;-68
2023/12/26 10:38:44;;;;;;;8.30;0.95;;;9.90;99.90;;;;;;5020611;28;20147;-68
2023/12/26 10:41:23;;;;;;;6.50;1.17;;;9.90;99.90;;;;;;5018394;28;20572;-68
2023/12/26 10:43:50;;;;;;;7.10;1.27;;;9.90;99.90;;;;;;5016760;28;20028;-68
2023/12/26 10:46:17;;;;;;;6.00;1.23;;;10.00;99.90;;;;;;5018537;28;20029;-68
2023/12/26 10:48:47;;;;;;;13.10;1.65;;;10.00;99.90;;;;;;5026178;28;20044;-68
2023/12/26 10:51:15;;;;;;;9.55;1.00;;;10.10;99.90;;;;;;5021800;28;20063;-69
2023/12/26 10:53:50;;;;;;;5.57;1.65;;;10.10;99.90;;;;;;5025077;28;20229;-68
2023/12/26 10:56:19;;;;;;;13.27;1.30;;;10.20;99.90;;;;;;4999223;28;20499;-69
2023/12/26 10:58:46;;;;;;;10.15;0.80;;;10.20;99.90;;;;;;5019055;28;20414;-68
2023/12/26 11:01:12;;;;;;;7.85;1.45;;;10.20;99.90;;;;;;5018777;28;20040;-69
2023/12/26 13:52:44;;;;;;;9.27;1.67;;;9.90;99.90;;;;;;5019846;28;20702;-70
2023/12/26 13:55:47;;;;;;;16.17;1.60;;;9.90;99.90;;;;;;5021342;28;20032;-68
2023/12/26 13:58:50;;;;;;;11.55;1.95;;;9.90;99.90;;;;;;5016743;28;20063;-68
2023/12/26 14:01:54;;;;;;;10.88;1.77;;;9.90;99.90;;;;;;5019459;28;20036;-69
2023/12/26 14:04:57;;;;;;;10.45;1.42;;;9.80;99.90;;;;;;5018510;28;20118;-68
2023/12/26 14:08:00;;;;;;;11.82;1.52;;;9.80;99.90;;;;;;5017130;28;20403;-68
2023/12/26 14:11:03;;;;;;;8.70;1.58;;;9.80;99.90;;;;;;5016642;28;20045;-68
2023/12/26 14:14:06;;;;;;;10.13;1.30;;;9.80;99.90;;;;;;5017693;28;20515;-70
2023/12/26 14:17:09;;;;;;;11.38;1.35;;;9.80;99.90;;;;;;5018434;28;20056;-70
2023/12/26 14:20:12;;;;;;;12.90;1.42;;;9.80;99.90;;;;;;5017681;28;20040;-70
2023/12/26 14:23:15;;;;;;;12.43;1.95;;;9.80;99.90;;;;;;5013354;28;20056;-70
2023/12/26 14:26:18;;;;;;;8.60;1.40;;;9.80;99.90;;;;;;5013723;28;20067;-69
2023/12/26 14:29:21;;;;;;;19.33;2.05;;;9.80;99.90;;;;;;5019188;28;20037;-69
2023/12/26 14:32:24;;;;;;;9.35;1.58;;;9.70;99.90;;;;;;5018799;28;20114;-70
2023/12/26 14:35:28;;;;;;;11.15;1.77;;;9.70;99.90;;;;;;5018954;28;20033;-69
2023/12/26 14:38:30;;;;;;;8.13;1.48;;;9.70;99.90;;;;;;5020827;28;20044;-69
2023/12/26 14:41:33;;;;;;;4.57;1.05;;;9.70;99.90;;;;;;5019780;28;20222;-70
2023/12/26 14:44:37;;;;;;;12.25;1.50;;;9.70;99.90;;;;;;5021919;28;21501;-70
2023/12/26 14:47:40;;;;;;;10.02;1.30;;;9.70;99.90;;;;;;5020892;28;20556;-70
2023/12/26 14:50:43;;;;;;;12.07;1.73;;;9.70;99.90;;;;;;5021625;28;20764;-70
2023/12/26 14:53:48;;;;;;;4.50;1.15;;;9.70;99.90;;;;;;5021369;28;20430;-70
2023/12/26 14:56:52;;;;;;;8.98;1.77;;;9.70;99.90;;;;;;5019384;28;20632;-70
2023/12/26 14:59:55;;;;;;;14.85;1.38;;;9.60;99.90;;;;;;5036908;28;22462;-70
2023/12/26 15:02:24;;;;;;;13.43;1.90;;;9.60;99.90;;;;;;5017302;28;20036;-70
2023/12/26 15:04:50;;;;;;;9.38;1.60;;;9.60;99.90;;;;;;5021413;28;20090;-70
2023/12/26 15:07:16;;;;;;;10.73;1.70;;;9.50;99.90;;;;;;5019067;28;20028;-71
2023/12/26 15:09:42;;;;;;;9.90;1.90;;;9.50;99.90;;;;;;5020858;28;20117;-70
2023/12/26 15:12:07;;;;;;;9.32;1.60;;;9.50;99.90;;;;;;5020124;28;20078;-70
2023/12/26 15:14:33;;;;;;;12.38;3.00;;;9.50;99.90;;;;;;5021600;28;20517;-70
2023/12/26 15:16:59;;;;;;;9.23;1.55;;;9.60;99.90;;;;;;5019495;28;20752;-70
2023/12/26 15:19:24;;;;;;;9.93;1.30;;;9.50;99.90;;;;;;5020854;28;20086;-70
2023/12/26 15:21:50;;;;;;;9.75;1.70;;;9.40;99.90;;;;;;5019458;28;20040;-69
2023/12/26 15:24:16;;;;;;;7.80;1.58;;;9.40;99.90;;;;;;5019581;28;20155;-70
2023/12/26 15:26:42;;;;;;;10.05;2.17;;;9.40;99.90;;;;;;5019859;28;20616;-70
2023/12/26 15:29:08;;;;;;;11.40;1.17;;;9.30;99.90;;;;;;5020673;28;20044;-70
2023/12/26 15:31:34;;;;;;;9.18;1.67;;;9.40;99.90;;;;;;5018771;28;20041;-69
2023/12/26 15:33:59;;;;;;;6.95;1.27;;;9.30;99.90;;;;;;5025166;28;20037;-70
2023/12/26 15:36:27;;;;;;;8.30;2.00;;;9.30;99.90;;;;;;5021968;28;20522;-70
2023/12/26 15:38:53;;;;;;;;;;;9.30;99.90;;;;;;5019910;28;20037;-70
2023/12/26 15:41:24;;;;;;;5.10;0.95;;;9.20;99.90;;;;;;5018912;28;19924;-70
2023/12/26 15:43:54;;;;;;;6.50;0.90;;;9.20;99.90;;;;;;5018604;28;20068;-70
2023/12/26 15:46:21;;;;;;;9.77;1.33;;;9.20;99.90;;;;;;5018203;28;20033;-70
2023/12/26 15:48:49;;;;;;;3.92;0.77;;;9.20;99.90;;;;;;5020842;28;20028;-69
2023/12/26 15:51:18;;;;;;;4.15;0.80;;;9.20;99.90;;;;;;5018901;28;20033;-70
2023/12/26 15:53:46;;;;;;;8.98;1.27;;;9.10;99.90;;;;;;5019603;28;20483;-70
2023/12/26 15:56:12;;;;;;;7.35;1.00;;;9.10;99.90;;;;;;5017697;28;20039;-70